createdAt,value
2023-02-19T00:01:09.962Z,100860.38
2023-02-19T00:03:38.057Z,100870.53
2023-02-19T00:06:07.099Z,100881.28
2023-02-19T00:08:35.875Z,100886.09
2023-02-19T00:11:04.172Z,100899.28
2023-02-19T00:13:32.178Z,100884.88
2023-02-19T00:16:00.524Z,100882.38
2023-02-19T00:18:29.594Z,100881.16
2023-02-19T00:20:57.528Z,100879.13
2023-02-19T00:23:25.261Z,100881.06
2023-02-19T00:25:52.882Z,100877.03
2023-02-19T00:28:20.641Z,100870.22
2023-02-19T00:30:48.677Z,100867.50
2023-02-19T00:33:17.248Z,100869.75
2023-02-19T00:35:46.337Z,100869.13
2023-02-19T00:38:13.990Z,100868.34
2023-02-19T00:40:41.692Z,100866.88
2023-02-19T00:43:09.388Z,100862.25
2023-02-19T00:45:37.048Z,100865.25
2023-02-19T00:48:04.951Z,100867.81
2023-02-19T00:50:32.986Z,100878.19
2023-02-19T00:53:02.010Z,100870.16
2023-02-19T00:55:29.703Z,100879.97
2023-02-19T00:57:57.413Z,100864.56
2023-02-19T01:00:25.070Z,100869.28
2023-02-19T01:02:53.499Z,100883.47
2023-02-19T01:05:21.184Z,100879.28
2023-02-19T01:07:48.899Z,100884.88
2023-02-19T01:10:18.175Z,100876.19
2023-02-19T01:12:45.793Z,100876.03
2023-02-19T01:15:13.505Z,100880.06
2023-02-19T01:17:41.219Z,100874.16
2023-02-19T01:20:09.807Z,100871.19
2023-02-19T01:22:37.443Z,100880.34
2023-02-19T01:25:05.366Z,100883.38
2023-02-19T01:27:34.455Z,100868.09
2023-02-19T01:30:02.293Z,100873.50
2023-02-19T01:32:30.109Z,100881.06
2023-02-19T01:34:57.819Z,100882.50
2023-02-19T01:37:25.592Z,100881.78
2023-02-19T01:39:53.267Z,100881.41
2023-02-19T01:42:20.925Z,100883.78
2023-02-19T01:45:24.841Z,100882.16
2023-02-19T01:47:57.752Z,100878.38
2023-02-19T01:50:26.180Z,100874.97
2023-02-19T01:52:53.832Z,100876.91
2023-02-19T01:55:21.938Z,100885.63
2023-02-19T01:57:53.659Z,100878.38
2023-02-19T02:00:21.434Z,100880.94
2023-02-19T02:02:50.642Z,100883.41
2023-02-19T02:05:26.424Z,100888.41
2023-02-19T02:08:11.596Z,100889.47
2023-02-19T02:10:39.342Z,100875.53
2023-02-19T02:13:07.003Z,100877.38
2023-02-19T02:15:40.356Z,100880.38
2023-02-19T02:18:15.131Z,100881.66
2023-02-19T02:20:59.212Z,100890.91
2023-02-19T02:23:40.331Z,100876.22
2023-02-19T02:26:14.997Z,100879.94
2023-02-19T02:29:02.580Z,100880.38
2023-02-19T02:31:35.406Z,100874.28
2023-02-19T02:34:07.415Z,100883.47
2023-02-19T02:36:37.448Z,100884.38
2023-02-19T02:39:07.279Z,100886.09
2023-02-19T02:41:35.410Z,100891.47
2023-02-19T02:44:03.055Z,100889.63
2023-02-19T02:46:36.635Z,100882.53
2023-02-19T02:49:07.072Z,100898.09
2023-02-19T02:51:37.608Z,100896.13
2023-02-19T02:54:37.320Z,100892.78
2023-02-19T02:57:05.316Z,100898.59
2023-02-19T02:59:35.625Z,100892.22
2023-02-19T03:02:11.677Z,100905.28
2023-02-19T03:05:01.531Z,100880.69
2023-02-19T03:07:32.794Z,100903.13
2023-02-19T03:10:01.349Z,100903.69
2023-02-19T03:12:48.509Z,100910.75
2023-02-19T03:15:35.482Z,100917.22
2023-02-19T03:18:25.548Z,100927.44
2023-02-19T03:20:56.459Z,100918.06
2023-02-19T03:23:46.343Z,100938.19
2023-02-19T03:26:13.700Z,100924.44
2023-02-19T03:29:00.255Z,100936.44
2023-02-19T03:31:30.140Z,100929.34
2023-02-19T03:34:01.026Z,100942.75
2023-02-19T03:36:33.743Z,100941.72
2023-02-19T03:39:05.118Z,100938.78
2023-02-19T03:41:36.997Z,100944.59
2023-02-19T03:44:11.145Z,100954.38
2023-02-19T03:46:46.294Z,100944.00
2023-02-19T03:49:18.948Z,100951.44
2023-02-19T03:51:52.067Z,100951.56
2023-02-19T03:54:22.897Z,100957.63
2023-02-19T03:56:53.653Z,100952.56
2023-02-19T03:59:25.682Z,100944.88
2023-02-19T04:01:56.295Z,100964.06
2023-02-19T04:04:28.753Z,100970.91
2023-02-19T04:06:58.363Z,100979.38
2023-02-19T04:09:29.105Z,100987.38
2023-02-19T04:11:57.063Z,100981.09
2023-02-19T04:14:27.192Z,100982.34
2023-02-19T04:17:00.120Z,100993.91
2023-02-19T04:19:30.262Z,101004.56
2023-02-19T04:21:58.331Z,100994.56
2023-02-19T04:24:29.438Z,101006.78
2023-02-19T04:26:57.248Z,101004.69
2023-02-19T04:29:24.895Z,101004.69
2023-02-19T04:31:52.603Z,101007.97
2023-02-19T04:34:20.348Z,101017.63
2023-02-19T04:36:49.383Z,101003.81
2023-02-19T04:39:17.083Z,101011.44
2023-02-19T04:41:44.817Z,101020.91
2023-02-19T04:44:12.498Z,101019.13
2023-02-19T04:46:43.022Z,101028.34
2023-02-19T04:49:10.876Z,101029.00
2023-02-19T04:51:39.377Z,101036.56
2023-02-19T04:54:08.928Z,101041.88
2023-02-19T04:56:36.656Z,101042.53
2023-02-19T04:59:05.015Z,101048.19
2023-02-19T05:01:32.754Z,101047.72
2023-02-19T05:04:00.418Z,101068.34
2023-02-19T05:06:28.494Z,101051.00
2023-02-19T05:08:56.242Z,101077.03
2023-02-19T05:11:25.281Z,101080.00
2023-02-19T05:13:52.931Z,101075.66
2023-02-19T05:16:20.599Z,101085.97
2023-02-19T05:18:48.269Z,101094.31
2023-02-19T05:21:16.384Z,101092.59
2023-02-19T05:23:44.082Z,101091.13
2023-02-19T05:26:15.344Z,101085.03
2023-02-19T05:28:44.491Z,101105.00
2023-02-19T05:31:13.410Z,101107.50
2023-02-19T05:33:43.000Z,101100.06
2023-02-19T05:36:12.741Z,101100.16
2023-02-19T05:38:41.103Z,101113.28
2023-02-19T05:41:11.520Z,101108.84
2023-02-19T05:43:39.655Z,101110.31
2023-02-19T05:46:09.509Z,101112.88
2023-02-19T05:48:37.284Z,101104.50
2023-02-19T05:51:06.003Z,101124.00
2023-02-19T05:53:34.009Z,101112.94
2023-02-19T05:56:01.843Z,101114.16
2023-02-19T05:58:29.842Z,101114.47
2023-02-19T06:00:57.734Z,101126.22
2023-02-19T06:03:26.851Z,101131.22
2023-02-19T06:05:54.508Z,101127.00
2023-02-19T06:08:22.203Z,101131.81
2023-02-19T06:10:49.880Z,101148.72
2023-02-19T06:13:17.890Z,101142.19
2023-02-19T06:15:45.654Z,101149.59
2023-02-19T06:18:13.384Z,101147.28
2023-02-19T06:20:42.370Z,101165.53
2023-02-19T06:23:10.035Z,101190.34
2023-02-19T06:25:37.788Z,101183.13
2023-02-19T06:28:05.739Z,101185.59
2023-02-19T06:30:33.437Z,101187.66
2023-02-19T06:33:01.153Z,101213.88
2023-02-19T06:35:28.941Z,101208.09
2023-02-19T06:37:57.948Z,101232.34
2023-02-19T06:40:25.600Z,101241.25
2023-02-19T06:42:53.250Z,101245.22
2023-02-19T06:45:20.958Z,101246.41
2023-02-19T06:47:48.603Z,101251.06
2023-02-19T06:50:16.409Z,101257.34
2023-02-19T06:52:44.121Z,101262.78
2023-02-19T06:55:13.125Z,101265.72
2023-02-19T06:57:40.863Z,101270.81
2023-02-19T07:00:10.151Z,101271.50
2023-02-19T07:02:37.783Z,101273.22
2023-02-19T07:05:06.072Z,101276.19
2023-02-19T07:07:33.911Z,101278.84
2023-02-19T07:10:01.570Z,101280.44
2023-02-19T07:12:30.614Z,101288.94
2023-02-19T07:14:58.328Z,101274.16
2023-02-19T07:17:26.131Z,101283.16
2023-02-19T07:19:53.840Z,101285.88
2023-02-19T07:22:21.597Z,101308.97
2023-02-19T07:24:49.316Z,101319.44
2023-02-19T07:27:17.012Z,101334.53
2023-02-19T07:29:46.101Z,101329.47
2023-02-19T07:32:13.773Z,101335.06
2023-02-19T07:34:41.445Z,101350.47
2023-02-19T07:37:09.152Z,101353.06
2023-02-19T07:39:36.844Z,101368.06
2023-02-19T07:42:04.618Z,101361.75
2023-02-19T07:44:32.268Z,101364.13
2023-02-19T07:47:01.258Z,101368.84
2023-02-19T07:49:28.912Z,101385.91
2023-02-19T07:51:56.600Z,101381.41
2023-02-19T07:54:24.259Z,101370.59
2023-02-19T07:56:51.950Z,101374.00
2023-02-19T07:59:21.565Z,101381.81
2023-02-19T08:02:06.863Z,101376.81
2023-02-19T08:04:35.948Z,101388.00
2023-02-19T08:07:05.381Z,101394.13
2023-02-19T08:09:33.391Z,101397.31
2023-02-19T08:12:18.771Z,101410.63
2023-02-19T08:14:46.488Z,101401.66
2023-02-19T08:17:14.253Z,101401.28
2023-02-19T08:19:43.706Z,101402.75
2023-02-19T08:22:11.321Z,101410.97
2023-02-19T08:24:42.878Z,101424.56
2023-02-19T08:27:10.564Z,101417.28
2023-02-19T08:29:38.263Z,101418.72
2023-02-19T08:32:06.345Z,101419.03
2023-02-19T08:34:34.105Z,101427.94
2023-02-19T08:37:03.159Z,101443.06
2023-02-19T08:39:30.799Z,101440.19
2023-02-19T08:41:58.490Z,101445.88
2023-02-19T08:44:26.189Z,101449.41
2023-02-19T08:46:53.838Z,101451.41
2023-02-19T08:49:21.572Z,101458.41
2023-02-19T08:51:49.212Z,101455.19
2023-02-19T08:54:18.490Z,101472.25
2023-02-19T08:56:46.098Z,101487.22
2023-02-19T08:59:14.117Z,101496.66
2023-02-19T09:01:41.904Z,101497.25
2023-02-19T09:04:11.082Z,101499.50
2023-02-19T09:06:40.096Z,101489.91
2023-02-19T09:09:07.880Z,101498.66
2023-02-19T09:11:39.797Z,101509.38
2023-02-19T09:14:07.668Z,101500.75
2023-02-19T09:16:35.585Z,101514.16
2023-02-19T09:19:03.412Z,101511.59
2023-02-19T09:21:31.074Z,101528.00
2023-02-19T09:23:58.759Z,101533.78
2023-02-19T09:26:26.429Z,101545.00
2023-02-19T09:28:55.842Z,101543.06
2023-02-19T09:31:23.666Z,101561.84
2023-02-19T09:33:51.376Z,101576.34
2023-02-19T09:36:19.733Z,101590.69
2023-02-19T09:38:47.501Z,101592.19
2023-02-19T09:41:19.855Z,101593.00
2023-02-19T09:43:47.568Z,101591.50
2023-02-19T09:46:24.983Z,101602.91
2023-02-19T09:48:53.667Z,101610.28
2023-02-19T09:51:21.668Z,101612.69
2023-02-19T09:53:50.755Z,101609.47
2023-02-19T09:56:18.859Z,101597.66
2023-02-19T09:58:49.069Z,101606.50
2023-02-19T10:01:16.923Z,101611.06
2023-02-19T10:03:47.601Z,101633.09
2023-02-19T10:06:20.475Z,101638.94
2023-02-19T10:08:50.734Z,101647.75
2023-02-19T10:11:18.586Z,101632.72
2023-02-19T10:13:50.011Z,101625.72
2023-02-19T10:16:21.532Z,101638.75
2023-02-19T10:18:50.587Z,101645.78
2023-02-19T10:21:20.715Z,101649.09
2023-02-19T10:23:51.073Z,101653.25
2023-02-19T10:26:18.983Z,101655.69
2023-02-19T10:28:46.652Z,101667.00
2023-02-19T10:31:20.527Z,101667.81
2023-02-19T10:33:54.845Z,101659.88
2023-02-19T10:36:26.925Z,101676.22
2023-02-19T10:38:55.189Z,101661.91
2023-02-19T10:41:24.182Z,101647.50
2023-02-19T10:43:55.545Z,101641.97
2023-02-19T10:46:25.082Z,101655.88
2023-02-19T10:48:55.712Z,101649.59
2023-02-19T10:51:31.942Z,101662.72
2023-02-19T10:54:06.256Z,101660.63
2023-02-19T10:56:34.447Z,101652.38
2023-02-19T10:59:22.881Z,101652.22
2023-02-19T11:01:58.404Z,101667.25
2023-02-19T11:04:29.141Z,101666.13
2023-02-19T11:06:57.431Z,101674.16
2023-02-19T11:09:28.251Z,101662.78
2023-02-19T11:11:57.528Z,101672.34
2023-02-19T11:14:26.198Z,101664.81
2023-02-19T11:16:56.025Z,101671.59
2023-02-19T11:19:30.937Z,101677.31
2023-02-19T11:21:59.460Z,101661.69
2023-02-19T11:24:33.766Z,101667.00
2023-02-19T11:27:04.313Z,101669.88
2023-02-19T11:29:34.887Z,101680.16
2023-02-19T11:32:27.701Z,101701.00
2023-02-19T11:35:17.629Z,101686.72
2023-02-19T11:37:55.761Z,101689.19
2023-02-19T11:40:28.931Z,101695.09
2023-02-19T11:43:00.712Z,101692.56
2023-02-19T11:45:36.201Z,101698.16
2023-02-19T11:48:15.426Z,101691.53
2023-02-19T11:50:54.021Z,101701.69
2023-02-19T11:53:26.986Z,101715.13
2023-02-19T11:56:12.318Z,101710.50
2023-02-19T11:59:04.915Z,101684.41
2023-02-19T12:01:56.169Z,101679.47
2023-02-19T12:05:03.257Z,101688.69
2023-02-19T12:07:56.665Z,101679.13
2023-02-19T12:10:27.172Z,101687.44
2023-02-19T12:13:03.809Z,101679.94
2023-02-19T12:15:39.745Z,101677.44
2023-02-19T12:18:20.893Z,101688.69
2023-02-19T12:20:58.222Z,101683.81
2023-02-19T12:23:43.810Z,101697.53
2023-02-19T12:26:20.751Z,101700.34
2023-02-19T12:29:13.813Z,101706.13
2023-02-19T12:32:18.989Z,101698.19
2023-02-19T12:35:25.303Z,101687.78
2023-02-19T12:38:01.802Z,101682.31
2023-02-19T12:40:40.252Z,101692.25
2023-02-19T12:43:14.542Z,101688.91
2023-02-19T12:45:45.080Z,101701.34
2023-02-19T12:48:18.013Z,101699.22
2023-02-19T12:50:46.628Z,101708.31
2023-02-19T12:53:23.901Z,101712.38
2023-02-19T12:55:53.932Z,101714.16
2023-02-19T12:58:29.869Z,101709.75
2023-02-19T13:00:59.694Z,101709.03
2023-02-19T13:03:31.862Z,101718.06
2023-02-19T13:06:04.492Z,101720.22
2023-02-19T13:08:34.268Z,101718.16
2023-02-19T13:11:06.707Z,101715.88
2023-02-19T13:13:38.630Z,101717.63
2023-02-19T13:16:10.761Z,101716.28
2023-02-19T13:18:42.232Z,101715.94
2023-02-19T13:21:10.414Z,101723.00
2023-02-19T13:23:58.350Z,101727.19
2023-02-19T13:26:49.144Z,101733.53
2023-02-19T13:29:26.593Z,101738.03
2023-02-19T13:32:19.122Z,101739.44
2023-02-19T13:34:55.768Z,101743.09
2023-02-19T13:37:23.839Z,101753.28
2023-02-19T13:39:52.837Z,101765.66
2023-02-19T13:42:27.540Z,101763.53
2023-02-19T13:44:58.015Z,101771.38
2023-02-19T13:47:49.120Z,101773.41
2023-02-19T13:50:22.639Z,101768.16
2023-02-19T13:52:50.526Z,101766.84
2023-02-19T13:55:49.703Z,101751.19
2023-02-19T13:58:39.635Z,101750.56
2023-02-19T14:01:08.516Z,101766.03
2023-02-19T14:03:50.792Z,101764.13
2023-02-19T14:06:18.644Z,101742.84
2023-02-19T14:08:56.082Z,101751.59
2023-02-19T14:12:01.326Z,101745.09
2023-02-19T14:14:36.327Z,101747.94
2023-02-19T14:17:07.556Z,101757.19
2023-02-19T14:19:46.984Z,101739.22
2023-02-19T14:23:06.495Z,101757.28
2023-02-19T14:25:39.297Z,101747.06
2023-02-19T14:28:15.783Z,101725.25
2023-02-19T14:30:50.116Z,101711.69
2023-02-19T14:33:19.557Z,101721.72
2023-02-19T14:35:48.856Z,101721.56
2023-02-19T14:38:19.507Z,101703.84
2023-02-19T14:40:48.024Z,101696.72
2023-02-19T14:43:17.641Z,101693.84
2023-02-19T14:45:49.230Z,101696.00
2023-02-19T14:48:23.573Z,101679.31
2023-02-19T14:50:53.384Z,101665.41
2023-02-19T14:53:22.813Z,101678.38
2023-02-19T14:55:51.915Z,101686.94
2023-02-19T14:58:23.559Z,101683.19
2023-02-19T15:00:52.619Z,101693.25
2023-02-19T15:03:29.204Z,101685.59
2023-02-19T15:05:58.803Z,101688.88
2023-02-19T15:08:32.705Z,101683.72
2023-02-19T15:11:00.657Z,101688.06
2023-02-19T15:13:29.643Z,101685.94
2023-02-19T15:15:59.132Z,101687.59
2023-02-19T15:18:28.076Z,101684.53
2023-02-19T15:21:01.199Z,101705.50
2023-02-19T15:23:31.552Z,101694.91
2023-02-19T15:26:00.392Z,101692.38
2023-02-19T15:28:32.930Z,101703.03
2023-02-19T15:31:15.386Z,101706.44
2023-02-19T15:33:53.336Z,101711.25
2023-02-19T15:36:31.819Z,101712.94
2023-02-19T15:39:01.375Z,101716.56
2023-02-19T15:41:32.806Z,101714.47
2023-02-19T15:44:08.854Z,101713.59
2023-02-19T15:46:38.508Z,101710.41
2023-02-19T15:49:08.919Z,101712.88
2023-02-19T15:51:41.697Z,101711.69
2023-02-19T15:54:15.740Z,101708.16
2023-02-19T15:56:45.860Z,101703.22
2023-02-19T15:59:19.926Z,101708.38
2023-02-19T16:01:49.073Z,101705.78
2023-02-19T16:04:18.257Z,101704.13
2023-02-19T16:06:54.660Z,101700.94
2023-02-19T16:09:23.715Z,101705.69
2023-02-19T16:11:52.844Z,101706.47
2023-02-19T16:14:25.345Z,101705.88
2023-02-19T16:16:56.004Z,101710.34
2023-02-19T16:19:27.038Z,101720.00
2023-02-19T16:21:56.277Z,101729.81
2023-02-19T16:24:28.746Z,101731.59
2023-02-19T16:26:56.972Z,101729.72
2023-02-19T16:29:26.963Z,101733.41
2023-02-19T16:31:58.329Z,101734.41
2023-02-19T16:34:34.269Z,101737.25
2023-02-19T16:37:03.626Z,101727.03
2023-02-19T16:39:32.665Z,101722.84
2023-02-19T16:42:13.419Z,101731.13
2023-02-19T16:44:41.635Z,101742.06
2023-02-19T16:47:16.828Z,101742.25
2023-02-19T16:49:44.895Z,101745.41
2023-02-19T16:52:15.545Z,101747.59
2023-02-19T16:54:43.294Z,101746.06
2023-02-19T16:57:11.030Z,101738.84
2023-02-19T16:59:39.021Z,101750.50
2023-02-19T17:02:07.736Z,101741.97
2023-02-19T17:04:36.864Z,101756.97
2023-02-19T17:07:04.708Z,101758.94
2023-02-19T17:09:32.391Z,101756.88
2023-02-19T17:12:00.016Z,101759.13
2023-02-19T17:14:27.758Z,101762.56
2023-02-19T17:16:55.457Z,101767.63
2023-02-19T17:19:23.294Z,101766.91
2023-02-19T17:21:52.459Z,101772.38
2023-02-19T17:24:20.180Z,101778.50
2023-02-19T17:26:47.881Z,101777.59
2023-02-19T17:29:18.254Z,101780.13
2023-02-19T17:31:46.242Z,101782.84
2023-02-19T17:34:13.994Z,101774.06
2023-02-19T17:36:43.205Z,101769.72
2023-02-19T17:39:16.092Z,101768.19
2023-02-19T17:41:44.181Z,101776.56
2023-02-19T17:44:12.112Z,101771.56
2023-02-19T17:46:40.174Z,101780.03
2023-02-19T17:49:08.672Z,101772.66
2023-02-19T17:51:36.516Z,101770.69
2023-02-19T17:54:04.188Z,101775.84
2023-02-19T17:56:33.210Z,101775.72
2023-02-19T17:59:00.972Z,101771.03
2023-02-19T18:01:28.816Z,101782.56
2023-02-19T18:03:56.518Z,101786.94
2023-02-19T18:06:24.236Z,101794.16
2023-02-19T18:08:53.418Z,101803.94
2023-02-19T18:11:22.476Z,101804.09
2023-02-19T18:13:52.114Z,101800.34
2023-02-19T18:16:19.930Z,101797.13
2023-02-19T18:18:47.744Z,101791.09
2023-02-19T18:21:16.180Z,101787.81
2023-02-19T18:23:44.060Z,101788.66
2023-02-19T18:26:13.713Z,101784.25
2023-02-19T18:28:41.441Z,101798.94
2023-02-19T18:31:11.050Z,101794.56
2023-02-19T18:33:38.996Z,101790.34
2023-02-19T18:36:11.258Z,101787.84
2023-02-19T18:38:39.319Z,101785.56
2023-02-19T18:41:07.291Z,101796.00
2023-02-19T18:43:34.969Z,101797.59
2023-02-19T18:46:03.285Z,101796.44
2023-02-19T18:48:32.394Z,101807.44
2023-02-19T18:51:00.093Z,101807.28
2023-02-19T18:53:28.349Z,101795.13
2023-02-19T18:55:57.426Z,101810.28
2023-02-19T18:58:25.510Z,101801.34
2023-02-19T19:00:53.199Z,101794.47
2023-02-19T19:03:21.035Z,101800.34
2023-02-19T19:05:50.198Z,101788.28
2023-02-19T19:08:18.056Z,101777.59
2023-02-19T19:10:45.777Z,101774.97
2023-02-19T19:13:13.524Z,101782.53
2023-02-19T19:15:41.516Z,101766.13
2023-02-19T19:18:09.378Z,101772.03
2023-02-19T19:20:37.039Z,101781.47
2023-02-19T19:23:06.383Z,101784.09
2023-02-19T19:25:34.120Z,101773.03
2023-02-19T19:28:01.856Z,101781.72
2023-02-19T19:30:30.592Z,101795.06
2023-02-19T19:32:58.315Z,101803.81
2023-02-19T19:35:28.574Z,101807.50
2023-02-19T19:37:56.259Z,101813.41
2023-02-19T19:40:25.341Z,101819.66
2023-02-19T19:42:53.745Z,101813.97
2023-02-19T19:45:21.710Z,101810.72
2023-02-19T19:47:49.848Z,101805.78
2023-02-19T19:50:18.261Z,101801.75
2023-02-19T19:52:45.976Z,101801.03
2023-02-19T19:55:13.688Z,101788.94
2023-02-19T19:57:42.816Z,101797.56
2023-02-19T20:00:16.136Z,101800.81
2023-02-19T20:02:43.838Z,101791.00
2023-02-19T20:05:11.855Z,101796.13
2023-02-19T20:07:39.777Z,101799.19
2023-02-19T20:10:08.588Z,101800.63
2023-02-19T20:12:36.308Z,101797.91
2023-02-19T20:15:05.977Z,101777.56
2023-02-19T20:17:33.792Z,101790.94
2023-02-19T20:20:01.682Z,101793.88
2023-02-19T20:22:29.386Z,101780.28
2023-02-19T20:24:57.104Z,101765.00
2023-02-19T20:27:25.115Z,101774.09
2023-02-19T20:29:52.840Z,101776.66
2023-02-19T20:32:22.018Z,101772.63
2023-02-19T20:34:50.183Z,101785.94
2023-02-19T20:37:18.023Z,101786.59
2023-02-19T20:39:45.774Z,101803.47
2023-02-19T20:42:16.599Z,101795.06
2023-02-19T20:44:44.581Z,101801.72
2023-02-19T20:47:12.377Z,101781.63
2023-02-19T20:49:45.345Z,101783.16
2023-02-19T20:52:19.077Z,101767.75
2023-02-19T20:54:46.750Z,101764.22
2023-02-19T20:57:15.137Z,101764.31
2023-02-19T20:59:44.232Z,101763.19
2023-02-19T21:02:17.824Z,101764.72
2023-02-19T21:04:48.019Z,101757.91
2023-02-19T21:07:15.862Z,101755.63
2023-02-19T21:09:43.580Z,101757.31
2023-02-19T21:12:11.308Z,101755.56
2023-02-19T21:14:39.249Z,101750.97
2023-02-19T21:17:07.013Z,101750.47
2023-02-19T21:19:34.780Z,101752.56
2023-02-19T21:22:03.835Z,101748.03
2023-02-19T21:24:32.656Z,101747.47
2023-02-19T21:27:00.433Z,101754.19
2023-02-19T21:29:28.205Z,101741.56
2023-02-19T21:31:57.626Z,101747.44
2023-02-19T21:34:26.996Z,101744.72
2023-02-19T21:36:55.344Z,101759.34
2023-02-19T21:39:26.042Z,101759.84
2023-02-19T21:41:53.800Z,101768.63
2023-02-19T21:44:22.094Z,101778.50
2023-02-19T21:46:49.863Z,101767.53
2023-02-19T21:49:17.844Z,101776.88
2023-02-19T21:51:47.838Z,101771.78
2023-02-19T21:54:17.740Z,101776.78
2023-02-19T21:56:47.085Z,101772.66
2023-02-19T21:59:14.772Z,101779.75
2023-02-19T22:01:43.488Z,101781.28
2023-02-19T22:04:13.819Z,101784.53
2023-02-19T22:06:41.704Z,101792.47
2023-02-19T22:09:10.697Z,101781.63
2023-02-19T22:11:38.431Z,101782.13
2023-02-19T22:14:07.718Z,101787.63
2023-02-19T22:16:35.489Z,101783.78
2023-02-19T22:19:03.335Z,101778.09
2023-02-19T22:21:32.462Z,101776.50
2023-02-19T22:24:01.174Z,101784.06
2023-02-19T22:26:30.397Z,101783.56
2023-02-19T22:28:59.400Z,101774.00
2023-02-19T22:31:28.926Z,101779.34
2023-02-19T22:33:57.179Z,101779.22
2023-02-19T22:36:26.661Z,101768.41
2023-02-19T22:38:54.616Z,101762.09
2023-02-19T22:41:22.647Z,101765.84
2023-02-19T22:43:50.853Z,101769.00
2023-02-19T22:46:20.440Z,101774.63
2023-02-19T22:48:50.497Z,101777.50
2023-02-19T22:51:19.650Z,101754.66
2023-02-19T22:53:48.515Z,101768.97
2023-02-19T22:56:17.436Z,101762.94
2023-02-19T22:58:45.644Z,101758.03
2023-02-19T23:01:14.838Z,101770.00
2023-02-19T23:03:47.164Z,101763.97
2023-02-19T23:06:16.691Z,101757.00
2023-02-19T23:08:44.831Z,101752.34
2023-02-19T23:11:13.152Z,101743.06
2023-02-19T23:13:42.056Z,101746.44
2023-02-19T23:16:10.013Z,101731.28
2023-02-19T23:18:37.840Z,101729.88
2023-02-19T23:21:05.552Z,101723.94
2023-02-19T23:23:34.596Z,101721.44
2023-02-19T23:26:02.319Z,101720.06
2023-02-19T23:28:30.122Z,101713.44
2023-02-19T23:30:58.018Z,101712.38
2023-02-19T23:33:25.766Z,101710.31
2023-02-19T23:35:53.489Z,101690.78
2023-02-19T23:38:21.153Z,101697.06
2023-02-19T23:40:50.271Z,101698.41
2023-02-19T23:43:17.972Z,101695.25
2023-02-19T23:45:45.865Z,101686.34
2023-02-19T23:48:13.586Z,101691.53
2023-02-19T23:50:41.283Z,101687.00
2023-02-19T23:53:09.229Z,101684.63
2023-02-19T23:55:36.886Z,101694.97
2023-02-19T23:58:05.952Z,101693.16
